sensor_id;sensor_type;location;lat;lon;timestamp;pressure;altitude;pressure_sealevel;temperature;humidity
45888;BME280;31595;51.418;7.572;2023-04-08T08:18:12;101092.06;;;10.73;81.81
45888;BME280;31595;51.418;7.572;2023-04-08T08:20:40;101095.00;;;10.82;81.03
45888;BME280;31595;51.418;7.572;2023-04-08T08:23:07;101102.44;;;10.87;78.82
45888;BME280;31595;51.418;7.572;2023-04-08T08:25:35;101100.25;;;11.03;78.00
45888;BME280;31595;51.418;7.572;2023-04-08T08:28:03;101102.97;;;11.08;75.83
45888;BME280;31595;51.418;7.572;2023-04-08T08:30:30;101103.78;;;11.08;73.46
45888;BME280;31595;51.418;7.572;2023-04-08T08:32:57;101104.91;;;11.26;72.15
45888;BME280;31595;51.418;7.572;2023-04-08T08:35:26;101106.38;;;11.37;71.40
45888;BME280;31595;51.418;7.572;2023-04-08T08:37:54;101112.16;;;11.60;70.49
45888;BME280;31595;51.418;7.572;2023-04-08T08:40:21;101123.44;;;11.69;69.42
45888;BME280;31595;51.418;7.572;2023-04-08T08:42:49;101124.22;;;11.88;68.17
45888;BME280;31595;51.418;7.572;2023-04-08T08:45:18;101121.16;;;12.17;68.06
45888;BME280;31595;51.418;7.572;2023-04-08T08:47:45;101129.97;;;12.52;65.82
45888;BME280;31595;51.418;7.572;2023-04-08T08:50:13;101129.31;;;12.83;64.95
45888;BME280;31595;51.418;7.572;2023-04-08T08:52:48;101117.63;;;13.17;64.04
45888;BME280;31595;51.418;7.572;2023-04-08T08:55:17;101129.75;;;13.13;61.51
45888;BME280;31595;51.418;7.572;2023-04-08T08:57:45;101119.56;;;12.94;61.02
45888;BME280;31595;51.418;7.572;2023-04-08T09:00:14;101117.13;;;12.79;61.47
45888;BME280;31595;51.418;7.572;2023-04-08T09:02:42;101125.00;;;12.63;60.98
45888;BME280;31595;51.418;7.572;2023-04-08T09:05:09;101130.59;;;12.63;61.07
45888;BME280;31595;51.418;7.572;2023-04-08T09:07:37;101133.06;;;12.51;60.92
45888;BME280;31595;51.418;7.572;2023-04-08T09:10:08;101135.56;;;12.38;60.34
45888;BME280;31595;51.418;7.572;2023-04-08T09:12:52;101133.81;;;12.29;60.58
45888;BME280;31595;51.418;7.572;2023-04-08T09:15:20;101131.84;;;12.29;60.89
45888;BME280;31595;51.418;7.572;2023-04-08T09:17:50;101136.59;;;12.29;61.13
45888;BME280;31595;51.418;7.572;2023-04-08T09:20:18;101134.34;;;12.31;60.70
45888;BME280;31595;51.418;7.572;2023-04-08T09:22:55;101132.34;;;12.31;61.11
45888;BME280;31595;51.418;7.572;2023-04-08T09:25:25;101136.72;;;12.37;61.00
45888;BME280;31595;51.418;7.572;2023-04-08T09:27:52;101132.47;;;12.40;60.58
45888;BME280;31595;51.418;7.572;2023-04-08T09:30:22;101129.88;;;12.44;60.22
45888;BME280;31595;51.418;7.572;2023-04-08T09:32:50;101137.41;;;12.57;60.67
45888;BME280;31595;51.418;7.572;2023-04-08T09:35:17;101133.38;;;12.77;59.79
45888;BME280;31595;51.418;7.572;2023-04-08T09:37:45;101135.84;;;12.78;59.34
45888;BME280;31595;51.418;7.572;2023-04-08T09:40:13;101136.16;;;12.77;59.40
45888;BME280;31595;51.418;7.572;2023-04-08T09:42:48;101143.19;;;12.74;59.74
45888;BME280;31595;51.418;7.572;2023-04-08T09:45:18;101145.47;;;12.72;58.73
45888;BME280;31595;51.418;7.572;2023-04-08T09:47:55;101149.53;;;12.66;58.30
45888;BME280;31595;51.418;7.572;2023-04-08T09:50:26;101153.97;;;12.53;58.45
45888;BME280;31595;51.418;7.572;2023-04-08T09:53:00;101152.13;;;12.49;58.57
45888;BME280;31595;51.418;7.572;2023-04-08T09:55:30;101158.13;;;12.42;59.30
45888;BME280;31595;51.418;7.572;2023-04-08T09:58:03;101156.25;;;12.37;59.12
45888;BME280;31595;51.418;7.572;2023-04-08T10:00:39;101158.94;;;12.29;59.56
45888;BME280;31595;51.418;7.572;2023-04-08T10:03:10;101155.53;;;12.32;59.61
45888;BME280;31595;51.418;7.572;2023-04-08T10:05:40;101159.56;;;12.26;60.09
45888;BME280;31595;51.418;7.572;2023-04-08T10:08:08;101157.59;;;12.26;58.95
45888;BME280;31595;51.418;7.572;2023-04-08T10:10:38;101152.66;;;12.37;59.21
45888;BME280;31595;51.418;7.572;2023-04-08T10:13:08;101153.78;;;12.50;59.17
45888;BME280;31595;51.418;7.572;2023-04-08T10:15:36;101160.38;;;12.68;59.40
45888;BME280;31595;51.418;7.572;2023-04-08T10:18:30;101158.53;;;12.77;57.45
45888;BME280;31595;51.418;7.572;2023-04-08T10:21:01;101165.13;;;12.95;58.18
45888;BME280;31595;51.418;7.572;2023-04-08T10:23:51;101158.00;;;13.25;57.25
45888;BME280;31595;51.418;7.572;2023-04-08T10:26:33;101162.88;;;13.56;56.97
45888;BME280;31595;51.418;7.572;2023-04-08T10:32:26;101174.94;;;14.10;54.83
45888;BME280;31595;51.418;7.572;2023-04-08T10:34:54;101171.72;;;14.26;54.06
45888;BME280;31595;51.418;7.572;2023-04-08T10:37:21;101160.06;;;14.32;52.80
45888;BME280;31595;51.418;7.572;2023-04-08T10:39:49;101160.56;;;14.34;52.52
45888;BME280;31595;51.418;7.572;2023-04-08T10:42:17;101155.97;;;14.38;53.36
45888;BME280;31595;51.418;7.572;2023-04-08T10:44:45;101161.44;;;14.52;52.96
45888;BME280;31595;51.418;7.572;2023-04-08T10:47:14;101155.56;;;14.63;50.57
45888;BME280;31595;51.418;7.572;2023-04-08T10:49:41;101146.66;;;14.60;50.63
45888;BME280;31595;51.418;7.572;2023-04-08T10:52:08;101142.06;;;14.73;50.92
45888;BME280;31595;51.418;7.572;2023-04-08T10:54:36;101133.88;;;14.94;50.34
45888;BME280;31595;51.418;7.572;2023-04-08T10:57:04;101136.22;;;15.27;49.82
45888;BME280;31595;51.418;7.572;2023-04-08T10:59:32;101140.00;;;15.40;49.17
45888;BME280;31595;51.418;7.572;2023-04-08T11:01:59;101144.94;;;15.69;48.86
45888;BME280;31595;51.418;7.572;2023-04-08T11:04:28;101139.16;;;15.92;47.89
45888;BME280;31595;51.418;7.572;2023-04-08T11:06:55;101145.25;;;15.85;47.93
45888;BME280;31595;51.418;7.572;2023-04-08T11:09:23;101147.28;;;16.23;46.23
45888;BME280;31595;51.418;7.572;2023-04-08T11:11:51;101147.13;;;16.28;46.18
45888;BME280;31595;51.418;7.572;2023-04-08T11:14:18;101138.44;;;16.80;46.23
45888;BME280;31595;51.418;7.572;2023-04-08T11:16:46;101137.22;;;16.90;45.71
45888;BME280;31595;51.418;7.572;2023-04-08T11:19:14;101138.16;;;17.24;45.32
45888;BME280;31595;51.418;7.572;2023-04-08T11:21:43;101139.78;;;17.46;44.53
45888;BME280;31595;51.418;7.572;2023-04-08T11:24:10;101145.41;;;17.25;44.22
45888;BME280;31595;51.418;7.572;2023-04-08T11:26:38;101131.94;;;17.52;43.94
45888;BME280;31595;51.418;7.572;2023-04-08T11:29:09;101134.53;;;17.57;43.33
45888;BME280;31595;51.418;7.572;2023-04-08T11:31:39;101135.19;;;17.96;43.15
45888;BME280;31595;51.418;7.572;2023-04-08T11:34:07;101139.19;;;18.07;42.25
45888;BME280;31595;51.418;7.572;2023-04-08T11:36:34;101141.25;;;17.64;42.96
45888;BME280;31595;51.418;7.572;2023-04-08T11:39:08;101141.94;;;17.61;43.54
45888;BME280;31595;51.418;7.572;2023-04-08T11:41:37;101139.34;;;17.56;42.30
45888;BME280;31595;51.418;7.572;2023-04-08T11:44:05;101146.53;;;17.12;43.01
45888;BME280;31595;51.418;7.572;2023-04-08T11:46:33;101143.41;;;16.75;44.33
45888;BME280;31595;51.418;7.572;2023-04-08T11:49:03;101140.25;;;16.76;45.53
45888;BME280;31595;51.418;7.572;2023-04-08T11:51:31;101142.44;;;16.71;46.18
45888;BME280;31595;51.418;7.572;2023-04-08T11:54:03;101136.53;;;16.63;45.49
45888;BME280;31595;51.418;7.572;2023-04-08T11:56:43;101141.56;;;16.49;45.95
45888;BME280;31595;51.418;7.572;2023-04-08T11:59:11;101135.56;;;16.59;45.92
45888;BME280;31595;51.418;7.572;2023-04-08T12:01:38;101132.75;;;16.89;44.88
45888;BME280;31595;51.418;7.572;2023-04-08T12:04:06;101136.97;;;17.25;44.23
45888;BME280;31595;51.418;7.572;2023-04-08T12:06:35;101134.47;;;17.99;43.99
45888;BME280;31595;51.418;7.572;2023-04-08T12:09:02;101140.22;;;17.69;44.26
45888;BME280;31595;51.418;7.572;2023-04-08T12:11:29;101152.56;;;17.22;44.86
45888;BME280;31595;51.418;7.572;2023-04-08T12:13:58;101154.09;;;16.90;45.76
45888;BME280;31595;51.418;7.572;2023-04-08T12:16:25;101151.94;;;16.57;45.78
45888;BME280;31595;51.418;7.572;2023-04-08T12:18:52;101150.66;;;16.55;46.09
45888;BME280;31595;51.418;7.572;2023-04-08T12:21:20;101147.03;;;16.46;46.18
45888;BME280;31595;51.418;7.572;2023-04-08T12:23:47;101150.09;;;16.23;46.54
45888;BME280;31595;51.418;7.572;2023-04-08T12:26:15;101156.47;;;16.02;47.54
45888;BME280;31595;51.418;7.572;2023-04-08T12:28:42;101158.63;;;15.97;47.99
45888;BME280;31595;51.418;7.572;2023-04-08T12:31:10;101161.78;;;15.87;46.93
45888;BME280;31595;51.418;7.572;2023-04-08T12:33:38;101158.81;;;15.57;48.86
45888;BME280;31595;51.418;7.572;2023-04-08T12:36:05;101158.84;;;15.48;48.75
45888;BME280;31595;51.418;7.572;2023-04-08T12:38:32;101155.19;;;15.39;49.65
45888;BME280;31595;51.418;7.572;2023-04-08T12:41:00;101152.19;;;15.61;49.61
45888;BME280;31595;51.418;7.572;2023-04-08T12:43:27;101146.38;;;16.01;49.14
45888;BME280;31595;51.418;7.572;2023-04-08T12:45:54;101154.59;;;16.15;49.01
45888;BME280;31595;51.418;7.572;2023-04-08T12:48:23;101148.31;;;16.18;48.58
45888;BME280;31595;51.418;7.572;2023-04-08T12:50:51;101145.78;;;16.34;48.17
45888;BME280;31595;51.418;7.572;2023-04-08T12:53:18;101149.69;;;16.42;48.63
45888;BME280;31595;51.418;7.572;2023-04-08T12:55:45;101148.44;;;16.60;48.16
45888;BME280;31595;51.418;7.572;2023-04-08T12:58:13;101141.75;;;16.82;47.81
45888;BME280;31595;51.418;7.572;2023-04-08T13:00:41;101143.38;;;16.83;46.60
45888;BME280;31595;51.418;7.572;2023-04-08T13:03:11;101145.69;;;16.52;47.49
45888;BME280;31595;51.418;7.572;2023-04-08T13:05:40;101146.88;;;16.51;48.14
45888;BME280;31595;51.418;7.572;2023-04-08T13:08:07;101145.28;;;16.32;48.68
45888;BME280;31595;51.418;7.572;2023-04-08T13:10:34;101146.25;;;16.36;48.55
45888;BME280;31595;51.418;7.572;2023-04-08T13:13:01;101138.16;;;16.35;47.76
45888;BME280;31595;51.418;7.572;2023-04-08T13:15:29;101146.09;;;16.33;48.24
45888;BME280;31595;51.418;7.572;2023-04-08T13:17:56;101146.47;;;16.22;48.60
45888;BME280;31595;51.418;7.572;2023-04-08T13:20:24;101153.31;;;16.13;48.63
45888;BME280;31595;51.418;7.572;2023-04-08T13:22:53;101153.34;;;15.87;49.35
45888;BME280;31595;51.418;7.572;2023-04-08T13:25:20;101162.63;;;15.78;49.43
45888;BME280;31595;51.418;7.572;2023-04-08T13:27:48;101146.44;;;15.84;49.59
45888;BME280;31595;51.418;7.572;2023-04-08T13:30:15;101153.19;;;15.83;49.39
45888;BME280;31595;51.418;7.572;2023-04-08T13:32:42;101151.38;;;15.78;50.40
45888;BME280;31595;51.418;7.572;2023-04-08T13:35:09;101156.38;;;15.73;50.63
45888;BME280;31595;51.418;7.572;2023-04-08T13:37:37;101156.84;;;15.49;50.21
45888;BME280;31595;51.418;7.572;2023-04-08T13:40:06;101158.00;;;15.39;50.88
45888;BME280;31595;51.418;7.572;2023-04-08T13:42:34;101143.13;;;15.38;51.08
45888;BME280;31595;51.418;7.572;2023-04-08T13:45:02;101162.28;;;15.19;50.47
45888;BME280;31595;51.418;7.572;2023-04-08T13:47:30;101154.38;;;15.21;51.15
45888;BME280;31595;51.418;7.572;2023-04-08T13:49:57;101153.50;;;15.12;50.53
45888;BME280;31595;51.418;7.572;2023-04-08T13:52:24;101159.47;;;15.01;50.97
45888;BME280;31595;51.418;7.572;2023-04-08T13:54:52;101155.81;;;15.01;51.47
45888;BME280;31595;51.418;7.572;2023-04-08T13:57:21;101156.13;;;14.91;51.63
45888;BME280;31595;51.418;7.572;2023-04-08T13:59:48;101170.63;;;14.84;51.88
45888;BME280;31595;51.418;7.572;2023-04-08T14:02:16;101164.22;;;14.92;51.86
45888;BME280;31595;51.418;7.572;2023-04-08T14:04:43;101164.22;;;15.01;52.28
45888;BME280;31595;51.418;7.572;2023-04-08T14:07:10;101165.09;;;15.10;50.90
45888;BME280;31595;51.418;7.572;2023-04-08T14:09:38;101167.91;;;15.19;52.23
45888;BME280;31595;51.418;7.572;2023-04-08T14:12:05;101159.81;;;15.26;51.23
45888;BME280;31595;51.418;7.572;2023-04-08T14:14:34;101158.50;;;15.23;51.33
45888;BME280;31595;51.418;7.572;2023-04-08T14:17:01;101164.91;;;15.24;50.78
45888;BME280;31595;51.418;7.572;2023-04-08T14:19:29;101154.03;;;15.40;51.25
45888;BME280;31595;51.418;7.572;2023-04-08T14:21:57;101153.88;;;15.19;51.50
45888;BME280;31595;51.418;7.572;2023-04-08T14:24:24;101160.66;;;15.27;50.73
45888;BME280;31595;51.418;7.572;2023-04-08T14:26:51;101158.31;;;15.20;51.40
45888;BME280;31595;51.418;7.572;2023-04-08T14:29:19;101158.00;;;15.13;50.57
45888;BME280;31595;51.418;7.572;2023-04-08T14:31:47;101146.59;;;15.09;51.34
45888;BME280;31595;51.418;7.572;2023-04-08T14:34:15;101155.84;;;15.18;51.59
45888;BME280;31595;51.418;7.572;2023-04-08T14:36:42;101144.31;;;15.29;51.48
45888;BME280;31595;51.418;7.572;2023-04-08T14:39:10;101142.31;;;15.29;51.25
45888;BME280;31595;51.418;7.572;2023-04-08T14:41:38;101137.69;;;15.42;51.95
45888;BME280;31595;51.418;7.572;2023-04-08T14:44:05;101141.31;;;15.51;50.99
45888;BME280;31595;51.418;7.572;2023-04-08T14:46:33;101143.13;;;15.56;50.97
45888;BME280;31595;51.418;7.572;2023-04-08T14:49:01;101137.00;;;15.71;51.14
45888;BME280;31595;51.418;7.572;2023-04-08T14:51:29;101143.16;;;15.73;51.73
45888;BME280;31595;51.418;7.572;2023-04-08T14:53:56;101136.00;;;15.85;50.92
45888;BME280;31595;51.418;7.572;2023-04-08T14:56:23;101138.47;;;15.95;51.05
45888;BME280;31595;51.418;7.572;2023-04-08T14:58:51;101141.47;;;15.90;50.52
45888;BME280;31595;51.418;7.572;2023-04-08T15:01:18;101133.22;;;15.67;50.71
45888;BME280;31595;51.418;7.572;2023-04-08T15:03:46;101135.88;;;15.55;51.36
45888;BME280;31595;51.418;7.572;2023-04-08T15:06:15;101139.84;;;15.36;50.57
45888;BME280;31595;51.418;7.572;2023-04-08T15:08:43;101140.00;;;15.31;52.12
45888;BME280;31595;51.418;7.572;2023-04-08T15:11:11;101134.88;;;15.51;51.72
45888;BME280;31595;51.418;7.572;2023-04-08T15:13:39;101136.84;;;15.59;51.09
45888;BME280;31595;51.418;7.572;2023-04-08T15:16:06;101138.66;;;15.90;50.71
45888;BME280;31595;51.418;7.572;2023-04-08T15:18:33;101131.72;;;15.78;51.19
45888;BME280;31595;51.418;7.572;2023-04-08T15:21:01;101134.53;;;15.70;50.70
45888;BME280;31595;51.418;7.572;2023-04-08T15:23:29;101133.22;;;15.67;51.06
45888;BME280;31595;51.418;7.572;2023-04-08T15:25:56;101143.28;;;15.68;50.98
45888;BME280;31595;51.418;7.572;2023-04-08T15:28:24;101135.03;;;15.54;50.32
45888;BME280;31595;51.418;7.572;2023-04-08T15:30:53;101137.50;;;15.56;50.77
45888;BME280;31595;51.418;7.572;2023-04-08T15:33:23;101142.97;;;15.35;50.79
45888;BME280;31595;51.418;7.572;2023-04-08T15:35:50;101152.41;;;15.48;51.56
45888;BME280;31595;51.418;7.572;2023-04-08T15:38:18;101147.25;;;15.58;51.10
45888;BME280;31595;51.418;7.572;2023-04-08T15:40:46;101148.91;;;15.59;51.27
45888;BME280;31595;51.418;7.572;2023-04-08T15:43:14;101142.94;;;15.70;52.15
45888;BME280;31595;51.418;7.572;2023-04-08T15:45:41;101142.31;;;15.73;51.06
45888;BME280;31595;51.418;7.572;2023-04-08T15:48:09;101150.22;;;15.53;51.44
45888;BME280;31595;51.418;7.572;2023-04-08T15:50:38;101144.63;;;15.45;52.21
45888;BME280;31595;51.418;7.572;2023-04-08T15:53:05;101143.94;;;15.39;51.55
45888;BME280;31595;51.418;7.572;2023-04-08T15:55:36;101135.53;;;15.39;52.07
45888;BME280;31595;51.418;7.572;2023-04-08T15:58:06;101140.31;;;15.47;51.41
45888;BME280;31595;51.418;7.572;2023-04-08T16:00:33;101136.53;;;15.43;51.93
45888;BME280;31595;51.418;7.572;2023-04-08T16:03:00;101148.91;;;15.59;52.09
45888;BME280;31595;51.418;7.572;2023-04-08T16:05:30;101137.34;;;15.61;51.65
45888;BME280;31595;51.418;7.572;2023-04-08T16:08:00;101141.50;;;15.46;52.52
45888;BME280;31595;51.418;7.572;2023-04-08T16:10:29;101139.50;;;15.29;52.92
45888;BME280;31595;51.418;7.572;2023-04-08T16:12:56;101137.84;;;15.28;53.21
45888;BME280;31595;51.418;7.572;2023-04-08T16:15:25;101145.44;;;15.01;51.93
45888;BME280;31595;51.418;7.572;2023-04-08T16:17:52;101149.50;;;14.78;53.35
45888;BME280;31595;51.418;7.572;2023-04-08T16:20:20;101149.00;;;14.76;54.15
45888;BME280;31595;51.418;7.572;2023-04-08T16:22:47;101151.97;;;14.71;53.32
45888;BME280;31595;51.418;7.572;2023-04-08T16:25:15;101147.34;;;14.66;53.46
45888;BME280;31595;51.418;7.572;2023-04-08T16:27:43;101151.44;;;14.60;53.90
45888;BME280;31595;51.418;7.572;2023-04-08T16:30:10;101152.16;;;14.74;54.90
45888;BME280;31595;51.418;7.572;2023-04-08T16:32:39;101158.59;;;14.84;54.91
45888;BME280;31595;51.418;7.572;2023-04-08T16:35:07;101149.88;;;14.85;54.57
45888;BME280;31595;51.418;7.572;2023-04-08T16:37:34;101153.81;;;14.84;53.95
45888;BME280;31595;51.418;7.572;2023-04-08T16:40:02;101158.22;;;14.68;54.32
45888;BME280;31595;51.418;7.572;2023-04-08T16:42:29;101149.63;;;14.55;54.91
45888;BME280;31595;51.418;7.572;2023-04-08T16:44:57;101159.69;;;14.56;54.92
45888;BME280;31595;51.418;7.572;2023-04-08T16:47:26;101159.13;;;14.54;54.77
45888;BME280;31595;51.418;7.572;2023-04-08T16:49:55;101159.09;;;14.37;55.38
45888;BME280;31595;51.418;7.572;2023-04-08T16:52:22;101168.75;;;14.22;55.15
45888;BME280;31595;51.418;7.572;2023-04-08T16:54:49;101163.09;;;14.13;56.58
45888;BME280;31595;51.418;7.572;2023-04-08T16:57:17;101161.38;;;14.04;56.89
45888;BME280;31595;51.418;7.572;2023-04-08T16:59:45;101164.66;;;13.97;56.07
45888;BME280;31595;51.418;7.572;2023-04-08T17:02:12;101158.44;;;13.77;57.43
45888;BME280;31595;51.418;7.572;2023-04-08T17:04:39;101161.09;;;13.60;58.06
45888;BME280;31595;51.418;7.572;2023-04-08T17:07:08;101173.63;;;13.63;58.05
45888;BME280;31595;51.418;7.572;2023-04-08T17:09:36;101158.31;;;13.60;58.53
45888;BME280;31595;51.418;7.572;2023-04-08T17:12:03;101165.56;;;13.61;58.69
45888;BME280;31595;51.418;7.572;2023-04-08T17:14:30;101164.72;;;13.60;57.19
45888;BME280;31595;51.418;7.572;2023-04-08T17:16:57;101168.66;;;13.37;58.64
45888;BME280;31595;51.418;7.572;2023-04-08T17:19:25;101170.94;;;13.35;58.20
45888;BME280;31595;51.418;7.572;2023-04-08T17:21:52;101166.81;;;13.32;59.30
45888;BME280;31595;51.418;7.572;2023-04-08T17:24:21;101174.38;;;13.32;59.92
45888;BME280;31595;51.418;7.572;2023-04-08T17:26:48;101166.13;;;13.13;59.78
45888;BME280;31595;51.418;7.572;2023-04-08T17:29:16;101174.94;;;13.06;60.29
45888;BME280;31595;51.418;7.572;2023-04-08T17:31:43;101163.84;;;13.01;59.50
45888;BME280;31595;51.418;7.572;2023-04-08T17:34:10;101169.59;;;12.82;60.22
45888;BME280;31595;51.418;7.572;2023-04-08T17:36:38;101165.66;;;12.83;61.06
45888;BME280;31595;51.418;7.572;2023-04-08T17:39:05;101165.16;;;12.81;60.92
45888;BME280;31595;51.418;7.572;2023-04-08T17:41:34;101178.28;;;12.80;61.68
45888;BME280;31595;51.418;7.572;2023-04-08T17:44:01;101172.38;;;12.82;61.00
45888;BME280;31595;51.418;7.572;2023-04-08T17:46:30;101165.16;;;12.81;61.34
45888;BME280;31595;51.418;7.572;2023-04-08T17:48:58;101170.22;;;12.79;61.06
45888;BME280;31595;51.418;7.572;2023-04-08T17:51:25;101171.34;;;12.78;61.09
45888;BME280;31595;51.418;7.572;2023-04-08T17:53:54;101166.59;;;12.78;61.27
45888;BME280;31595;51.418;7.572;2023-04-08T17:56:21;101176.72;;;12.74;61.32
45888;BME280;31595;51.418;7.572;2023-04-08T17:58:50;101173.63;;;12.76;61.54
45888;BME280;31595;51.418;7.572;2023-04-08T18:01:17;101182.66;;;12.73;61.78
45888;BME280;31595;51.418;7.572;2023-04-08T18:03:47;101185.25;;;12.69;61.56
45888;BME280;31595;51.418;7.572;2023-04-08T18:06:15;101197.88;;;12.39;61.76
45888;BME280;31595;51.418;7.572;2023-04-08T18:08:42;101199.09;;;12.33;62.31
45888;BME280;31595;51.418;7.572;2023-04-08T18:11:10;101196.81;;;12.35;62.01
45888;BME280;31595;51.418;7.572;2023-04-08T18:13:37;101189.50;;;12.39;62.53
45888;BME280;31595;51.418;7.572;2023-04-08T18:16:14;101192.81;;;12.41;62.40
45888;BME280;31595;51.418;7.572;2023-04-08T18:18:42;101195.47;;;12.46;62.19
45888;BME280;31595;51.418;7.572;2023-04-08T18:21:09;101196.13;;;12.43;62.82
45888;BME280;31595;51.418;7.572;2023-04-08T18:23:37;101205.50;;;12.47;62.35
45888;BME280;31595;51.418;7.572;2023-04-08T18:26:05;101194.75;;;12.54;61.78
45888;BME280;31595;51.418;7.572;2023-04-08T18:28:32;101199.47;;;12.12;62.70
45888;BME280;31595;51.418;7.572;2023-04-08T18:30:59;101203.22;;;12.35;62.83
45888;BME280;31595;51.418;7.572;2023-04-08T18:33:28;101206.25;;;12.39;63.03
45888;BME280;31595;51.418;7.572;2023-04-08T18:35:55;101214.00;;;12.42;63.17
45888;BME280;31595;51.418;7.572;2023-04-08T18:38:25;101211.09;;;12.47;62.75
45888;BME280;31595;51.418;7.572;2023-04-08T18:40:53;101211.94;;;12.48;62.96
45888;BME280;31595;51.418;7.572;2023-04-08T18:43:20;101220.31;;;12.48;62.55
45888;BME280;31595;51.418;7.572;2023-04-08T18:45:48;101226.09;;;12.51;63.10
45888;BME280;31595;51.418;7.572;2023-04-08T18:48:15;101227.78;;;12.52;63.39
45888;BME280;31595;51.418;7.572;2023-04-08T18:50:43;101229.94;;;12.55;62.42
45888;BME280;31595;51.418;7.572;2023-04-08T18:53:11;101233.88;;;12.54;63.23
45888;BME280;31595;51.418;7.572;2023-04-08T18:55:38;101236.69;;;12.54;63.02
45888;BME280;31595;51.418;7.572;2023-04-08T18:58:07;101238.25;;;12.61;63.06
45888;BME280;31595;51.418;7.572;2023-04-08T19:00:34;101232.03;;;12.64;63.20
45888;BME280;31595;51.418;7.572;2023-04-08T19:03:01;101232.13;;;12.58;62.77
45888;BME280;31595;51.418;7.572;2023-04-08T19:05:29;101236.56;;;12.59;62.39
45888;BME280;31595;51.418;7.572;2023-04-08T19:07:59;101225.91;;;12.62;62.54
45888;BME280;31595;51.418;7.572;2023-04-08T19:10:28;101229.34;;;12.58;62.49
45888;BME280;31595;51.418;7.572;2023-04-08T19:12:55;101232.44;;;12.57;62.84
45888;BME280;31595;51.418;7.572;2023-04-08T19:15:23;101233.06;;;12.54;62.64
45888;BME280;31595;51.418;7.572;2023-04-08T19:17:50;101238.66;;;12.54;63.28
45888;BME280;31595;51.418;7.572;2023-04-08T19:20:17;101241.75;;;12.52;63.05
45888;BME280;31595;51.418;7.572;2023-04-08T19:22:44;101235.94;;;12.49;63.21
45888;BME280;31595;51.418;7.572;2023-04-08T19:25:14;101234.06;;;12.44;63.37
45888;BME280;31595;51.418;7.572;2023-04-08T19:27:41;101235.00;;;12.39;63.46
45888;BME280;31595;51.418;7.572;2023-04-08T19:30:11;101245.38;;;12.39;62.98
45888;BME280;31595;51.418;7.572;2023-04-08T19:32:38;101238.41;;;12.36;63.23
45888;BME280;31595;51.418;7.572;2023-04-08T19:35:06;101244.41;;;12.30;63.81
45888;BME280;31595;51.418;7.572;2023-04-08T19:37:33;101239.44;;;12.27;63.60
45888;BME280;31595;51.418;7.572;2023-04-08T19:40:01;101249.88;;;12.21;63.70
45888;BME280;31595;51.418;7.572;2023-04-08T19:42:29;101244.81;;;12.23;63.54
45888;BME280;31595;51.418;7.572;2023-04-08T19:44:57;101241.25;;;12.17;63.63
45888;BME280;31595;51.418;7.572;2023-04-08T19:47:25;101246.44;;;12.10;63.29
45888;BME280;31595;51.418;7.572;2023-04-08T19:49:53;101252.59;;;12.07;63.04
45888;BME280;31595;51.418;7.572;2023-04-08T19:52:20;101256.47;;;11.92;63.62
45888;BME280;31595;51.418;7.572;2023-04-08T19:54:48;101256.63;;;11.82;63.99
45888;BME280;31595;51.418;7.572;2023-04-08T19:57:16;101255.75;;;11.68;64.40
45888;BME280;31595;51.418;7.572;2023-04-08T19:59:44;101250.09;;;11.54;64.54
45888;BME280;31595;51.418;7.572;2023-04-08T20:02:12;101258.88;;;11.42;65.19
45888;BME280;31595;51.418;7.572;2023-04-08T20:04:40;101257.38;;;11.31;65.26
45888;BME280;31595;51.418;7.572;2023-04-08T20:07:07;101265.59;;;11.22;65.39
45888;BME280;31595;51.418;7.572;2023-04-08T20:09:34;101264.63;;;11.13;65.74
45888;BME280;31595;51.418;7.572;2023-04-08T20:12:02;101265.31;;;11.00;66.02
45888;BME280;31595;51.418;7.572;2023-04-08T20:14:31;101268.00;;;10.86;66.63
45888;BME280;31595;51.418;7.572;2023-04-08T20:17:00;101274.00;;;10.74;67.13
45888;BME280;31595;51.418;7.572;2023-04-08T20:19:28;101268.53;;;10.64;67.12
45888;BME280;31595;51.418;7.572;2023-04-08T20:21:55;101274.81;;;10.50;67.27
45888;BME280;31595;51.418;7.572;2023-04-08T20:24:23;101270.69;;;10.43;67.40
45888;BME280;31595;51.418;7.572;2023-04-08T20:26:51;101272.16;;;10.35;67.12
45888;BME280;31595;51.418;7.572;2023-04-08T20:29:18;101271.72;;;10.23;67.29
45888;BME280;31595;51.418;7.572;2023-04-08T20:31:45;101272.91;;;10.11;66.58
45888;BME280;31595;51.418;7.572;2023-04-08T20:34:14;101271.38;;;9.95;67.73
45888;BME280;31595;51.418;7.572;2023-04-08T20:36:41;101270.63;;;9.84;67.52
45888;BME280;31595;51.418;7.572;2023-04-08T20:39:09;101275.16;;;9.70;68.64
45888;BME280;31595;51.418;7.572;2023-04-08T20:41:37;101285.78;;;9.63;68.70
45888;BME280;31595;51.418;7.572;2023-04-08T20:44:04;101279.47;;;9.52;69.35
45888;BME280;31595;51.418;7.572;2023-04-08T20:46:34;101275.06;;;9.46;69.34
45888;BME280;31595;51.418;7.572;2023-04-08T20:49:01;101282.34;;;9.37;68.64
45888;BME280;31595;51.418;7.572;2023-04-08T20:51:31;101272.38;;;9.30;69.83
45888;BME280;31595;51.418;7.572;2023-04-08T20:53:58;101271.06;;;9.18;69.52
45888;BME280;31595;51.418;7.572;2023-04-08T20:56:25;101270.25;;;9.07;69.18
45888;BME280;31595;51.418;7.572;2023-04-08T20:58:53;101278.34;;;8.98;68.99
45888;BME280;31595;51.418;7.572;2023-04-08T21:01:20;101265.88;;;8.85;69.38
45888;BME280;31595;51.418;7.572;2023-04-08T21:03:48;101269.53;;;8.81;69.55
45888;BME280;31595;51.418;7.572;2023-04-08T21:06:16;101272.59;;;8.69;70.62
45888;BME280;31595;51.418;7.572;2023-04-08T21:08:45;101270.41;;;8.61;70.64
45888;BME280;31595;51.418;7.572;2023-04-08T21:11:13;101276.56;;;8.52;70.34
45888;BME280;31595;51.418;7.572;2023-04-08T21:13:40;101281.28;;;8.47;69.99
45888;BME280;31595;51.418;7.572;2023-04-08T21:16:08;101274.63;;;8.43;71.37